NOAA/GLERL Met Station at Michigan City, IN

Previous 5 days (top of hour only)
See slso Previous 3 Hours (2 minute increments)
Jump down to Data
Switch to [English][Metric]
Zoom: Click and drag, Pan: shift-click and drag, Unzoom: double-click, Unzoom All





Zoom: Click and drag, Pan: shift-click and drag, Unzoom: double-click, Unzoom All

Note: Speed = mean wind during 2-minute period at top of hour,
Gust = max wind during 2-minute period at top of hour,
Peak = max wind during entire hour.
• See also 5-day windrose plot

NOAA/GLERL Met Station at Michigan City, IN

Previous 5 days (top of hour only)
See slso Previous 3 Hours (2 minute increments)
Jump up to Graphs
Switch to [English][Metric]
                  Wind  Wind  Wind   Air   Dew   Rel     Sta   PAR
                   Spd   Gst   Dir  Temp    Pt   Hum    Pres uE/m2/
YYYY-MM-DD   CST   kts   kts   deg     F     F     %   in Hg   sec
2016-02-11 21:00   8.0   9.7   148  16.5   5.6  61.9   29.64     0
2016-02-11 20:00   6.2   7.0   136  15.8   5.1  62.5   29.64     0
2016-02-11 19:00   3.5   4.3   122  17.1   6.0  61.5   29.65     0
2016-02-11 18:00   1.2   1.7   149  18.1   4.0  53.6   29.66     0
2016-02-11 17:00   4.1   5.2   255  19.2   4.7  53.0   29.66    47
2016-02-11 16:00   6.8   8.6   255  18.9   5.3  55.2   29.66   377
2016-02-11 15:00   7.6   8.9   280  19.2   7.8  60.8   29.66   466
2016-02-11 14:00  11.9  13.4   272  19.4   6.9  57.9   29.66  1020
2016-02-11 13:00  17.1  18.9   264  19.0   9.6  66.5   29.65  1466
2016-02-11 12:00  17.3  18.7   275  19.0  11.5  72.3   29.65   552
2016-02-11 11:00  12.6  15.9   312  19.8   7.9  59.7   29.65   420
2016-02-11 10:00  10.3  12.1   308  19.9   4.7  51.2   29.64   720
2016-02-11 09:00  12.4  14.8   299  18.9   7.1  59.8   29.63   234
2016-02-11 08:00  12.1  14.4   314  17.4   7.5  64.8   29.61   132
2016-02-11 07:00  19.4  23.1   302  17.6   7.3  63.8   29.59     7
2016-02-11 06:00  21.0  22.9   317  18.5   7.7  62.3   29.57     0
2016-02-11 05:00  19.2  22.7   313  19.0   5.6  55.5   29.54     0
2016-02-11 04:00  17.1  20.8   315  18.3   6.6  60.0   29.53     0
2016-02-11 03:00  17.5  20.6   291  18.3   6.7  60.1   29.52     0
2016-02-11 02:00  16.9  20.6   267  17.8   9.2  68.7   29.50     0
2016-02-11 01:00  14.0  15.9   278  17.2   6.3  61.8   29.50     0
2016-02-11 00:00  14.2  16.7   292  17.4   7.4  64.4   29.49     0
2016-02-10 23:00  16.9  19.1   266  17.1   8.1  67.5   29.50     0
2016-02-10 22:00  13.4  19.1   281  17.4   7.6  65.0   29.50     0
2016-02-10 21:00  10.7  13.8   277  17.4   6.3  61.3   29.47     0
2016-02-10 20:00  15.4  17.5   300  17.2   6.1  61.2   29.47     0
2016-02-10 19:00  11.3  13.8   289  17.1   7.4  65.5   29.46     0
2016-02-10 18:00  11.5  14.2   288  16.7   6.7  64.4   29.44     0
2016-02-10 17:00  10.9  16.1   297  16.0   4.7  60.7   29.43     7
2016-02-10 16:00  15.0  17.3   266  16.5   5.3  60.9   29.40    86
2016-02-10 15:00  14.8  17.7   276  16.2   5.1  61.4   29.38   157
2016-02-10 14:00  13.8  18.5   265  15.4   5.3  63.9   29.37   200
2016-02-10 13:00  15.9  17.7   264  15.3   8.5  74.2   29.36   402
2016-02-10 12:00  20.4  22.4   265  16.3   6.6  65.3   29.36   528
2016-02-10 11:00  21.8  25.9   263  16.5   7.7  67.8   29.36   766
2016-02-10 10:00  20.2  24.1   265  16.3   9.8  75.2   29.36     4
2016-02-10 09:00  18.9  23.3   280  16.9   9.0  70.9   29.34     4
2016-02-10 08:00  19.1  22.7   284  17.4   9.8  71.7   29.32     7
2016-02-10 07:00  22.9  28.0   270  17.6  10.0  71.7   29.31     3
2016-02-10 06:00  22.7  25.3   271  17.8  10.9  74.1   29.29     0
2016-02-10 05:00  23.5  26.2   288  18.7  11.4  73.1   29.29     0
2016-02-10 04:00  24.5  28.0   279  19.0  11.5  72.3   29.27     0
2016-02-10 03:00  26.4  30.5   283  19.0  13.9  80.1   29.26     0
2016-02-10 02:00  29.7  33.4   280  19.8  14.1  78.4   29.25     0
2016-02-10 01:00  26.2  30.1   268  19.2  15.5  85.1   29.25     0
2016-02-10 00:00  24.7  27.6   276  19.4  14.0  79.4   29.25     0
2016-02-09 23:00  23.7  26.4   281  19.8  13.9  77.9   29.25     0
2016-02-09 22:00  28.0  31.1   267  19.0  14.6  82.6   29.26     0
2016-02-09 21:00  26.6  29.4   259  18.9  14.9  84.3   29.26     0
2016-02-09 20:00  20.8  23.7   270  19.9  13.8  76.7   29.26     0
2016-02-09 19:00  22.9  26.0   264  19.4  13.7  78.2   29.26     0
2016-02-09 18:00  23.3  25.5   273  19.2  13.2  77.2   29.25     0
2016-02-09 17:00  22.4  25.7   272  19.8  13.7  77.1   29.23     9
2016-02-09 16:00  23.1  25.1   260  19.6  13.8  78.1   29.21    71
2016-02-09 15:00  22.6  24.1   269  19.9  13.8  76.9   29.18   207
2016-02-09 14:00  20.4  23.9   283  20.1  13.1  74.1   29.16   280
2016-02-09 13:00  20.4  22.9   278  20.3  14.1  76.5   29.16   347
2016-02-09 12:00  16.3  18.7   285  20.8  15.1  78.2   29.16   343
2016-02-09 11:00  18.1  22.4   284  21.4  17.0  83.1   29.16   202
2016-02-09 10:00  21.2  24.3   286  21.7  17.5  83.5   29.14   209
2016-02-09 09:00  22.0  23.7   288  23.7  19.9  85.0   29.12     4
2016-02-09 08:00  25.1  27.2   299  25.0  21.0  84.8   29.10     0
2016-02-09 07:00  23.7  25.9   283  25.7  22.7  88.2   29.08     0
2016-02-09 06:00  22.9  26.0   277  24.6  21.9  89.1   29.07     0
2016-02-09 05:00  24.3  27.0   262  24.3  21.4  88.7   29.06     0
2016-02-09 04:00  22.6  24.7   263  24.3  21.4  88.7   29.05     0
2016-02-09 03:00  23.3  25.7   263  24.3  21.2  87.8   29.05     0
2016-02-09 02:00  22.7  24.7   260  24.1  20.9  87.4   29.06     0
2016-02-09 01:00  20.8  23.1   267  25.2  22.5  89.6   29.06     0
2016-02-09 00:00  20.4  22.9   254  25.2  21.7  86.4   29.07     0
2016-02-08 23:00  20.6  22.9   264  26.1  22.0  84.3   29.07     0
2016-02-08 22:00  20.0  21.2   277  27.0  21.3  78.9   29.08     0
2016-02-08 21:00  17.3  20.2   269  26.4  24.6  92.7   29.09     0
2016-02-08 20:00  15.9  17.5   258  27.9  23.5  83.6   29.09     0
2016-02-08 19:00  17.3  18.9   254  28.4  22.5  78.2   29.10     0
2016-02-08 18:00  17.5  18.3   239  28.2  23.3  81.7   29.09     0
2016-02-08 17:00  16.7  19.1   244  28.6  24.4  84.0   29.07     3
2016-02-08 16:00  16.7  18.1   251  28.9  24.1  81.9   29.06    31
2016-02-08 15:00  15.4  17.1   260  29.7  23.8  78.4   29.04    89
2016-02-08 14:00  16.5  17.9   248  29.7  23.1  76.2   29.02   152
2016-02-08 13:00  16.7  18.3   244  29.8  22.5  73.7   29.00   312
2016-02-08 12:00  17.7  19.1   242  30.0  23.6  76.9   29.02   545
2016-02-08 11:00  15.9  17.3   244  30.7  23.7  74.7   29.02   264
2016-02-08 10:00  19.2  20.2   251  30.4  27.8  90.0   29.02   127
2016-02-08 09:00  12.6  15.9   242  31.8  30.5  94.9   29.01   136
2016-02-08 08:00   8.4   9.5   196  31.1  27.7  87.2   29.01    85
2016-02-08 07:00   9.3  10.3   186  30.4  26.9  86.7   29.01    11
2016-02-08 06:00  10.1  12.6   181  29.8  26.1  85.8   29.01     0
2016-02-08 05:00   8.9   9.7   181  31.1  26.6  83.2   29.00     0
2016-02-08 04:00   9.9  11.1   197  32.0  26.7  80.5   29.00     0
2016-02-08 03:00   8.9   9.7   184  32.2  26.4  79.0   29.01     0
2016-02-08 02:00   8.0   9.5   190  34.2  27.0  74.8   29.03     0
2016-02-08 01:00  10.5  11.1   210  34.9  28.4  77.1   29.05     0
2016-02-08 00:00  13.2  14.0   220  35.1  28.9  78.0   29.07     0
2016-02-07 23:00  12.8  13.2   217  35.1  29.0  78.2   29.09     0
2016-02-07 22:00  11.9  12.6   224  35.2  29.3  78.8   29.09     0
2016-02-07 21:00  16.7  17.7   228  36.5  30.3  78.0   29.10     0
2016-02-07 20:00  16.1  16.9   222  37.4  31.1  77.7   29.11     0
2016-02-07 19:00  14.6  15.6   204  40.6  31.2  68.6   29.12     0
2016-02-07 18:00  19.1  21.2   212  40.6  31.2  68.7   29.13     0